Tiempo atmosférico en la estación meteorológica de Morales del Toro, Zamora (710 m.)



Fecha
DESCASC
Temp. máxima en grados centígrados (hora)
DESCASC
Temp. mínima en grados centígrados (hora)
DESCASC
Temp. media en grados centígrados
DESCASC
Racha de viento máxima en m/sg (hora)
DESCASC
Velocidad máxima media en intervalos de 10 minutos(hora)
DESCASC
Precipitaciones diarias en mm
DESCASC
Precipitaciones de 00:00 a 06:00 en mm
DESCASC
Precipitaciones de 06:00 a 12:00 en mm
DESCASC
Precipitaciones de 12:00 a 18:00 en mm
DESCASC
Precipitaciones de 18:00 a 24:00 en mm
DESCASC
28-02-2021 16.1 (16:50) -0.9 (07:40) 7.6 7.22 (11:30) 5 (09:00) 0 0 0 0 0
27-02-2021 17.3 (16:00) 3.1 (04:30) 10.2 7.5 (14:10) 4.72 (17:20) 0 0 0 0 0
26-02-2021 16.3 (15:10) 6 (05:20) 11.1 9.44 (04:00) 6.94 (04:00) 0 0 0 0 0
25-02-2021 13.8 (14:00) 5.6 (00:00) 9.7 6.94 (23:20) 5.28 (23:00) 0 0 0 0 0
24-02-2021 18.5 (17:00) 2.4 (00:00) 10.5 9.17 (14:10) 5.83 (13:20) 0 0 0 0 0
23-02-2021 15.9 (16:20) -0.5 (-00:0) 7.7 7.22 (09:00) 5 (08:50) 0 0 0 0 0
22-02-2021 13.7 (18:20) 0.1 (00:00) 6.9 6.39 (15:40) 3.89 (07:30) 0 0 0 0 0
21-02-2021 11.2 (02:10) 4.1 (00:00) 7.6 11.39 (07:50) 7.78 (12:10) 6.8 0 0 3.2 3.6
20-02-2021 16.7 (15:00) 4.7 (00:00) 10.7 11.67 (15:00) 7.22 (14:40) 0 0 0 0 0
19-02-2021 16.5 (14:10) 6.1 (00:00) 11.3 13.33 (14:40) 9.72 (14:40) 0 0 0 0 0
18-02-2021 13.6 (14:40) 4.7 (00:00) 9.2 14.72 (14:30) 11.39 (13:20) 3 0 0 0.4 2.6
17-02-2021 15.5 (16:20) 6.8 (00:00) 11.2 9.17 (17:20) 6.39 (15:30) 0.2 0 0 0.2 0
16-02-2021 13.9 (12:40) 4.3 (00:00) 9.1 14.72 (12:00) 10.28 (11:50) 0.6 0 0 0 0.6
15-02-2021 18.7 (16:30) 4.1 (00:00) 11.4 7.5 (15:20) 5.28 (10:40) 0 0 0 0 0
14-02-2021 18.6 (16:40) -0.1 (00:00) 9.3 5.28 (12:20) 3.89 (09:50) 0 0 0 0 0
13-02-2021 15.1 (16:40) 1.8 (00:00) 8.5 6.67 (14:00) 5 (17:10) 0 0 0 0 0
12-02-2021 14.1 (16:30) 5.4 (00:00) 9.8 13.61 (12:20) 10 (05:40) 6.6 6.6 0 0 0
11-02-2021 14.5 (15:00) 6 (00:00) 10.3 10.83 (14:10) 7.5 (14:00) 0.6 0.2 0.2 0.2 0
10-02-2021 12.6 (16:10) 3.8 (00:00) 8.2 18.89 (02:50) 11.39 (02:50) 3.8 3.6 0.2 0 0
09-02-2021 7.6 (09:10) 3.4 (00:00) 5.5 18.89 (12:10) 11.94 (12:10) 16.2 2.2 4.6 7.8 1.6
08-02-2021 8.1 (13:10) 4.6 (00:00) 6.4 16.67 (14:40) 12.5 (13:20) 3.2 3.2 0 0 0
07-02-2021 6.8 (13:50) 1.5 (00:00) 4.2 10.83 (15:00) 8.89 (15:10) 2.4 0 0 1.2 1.2
06-02-2021 8.9 (00:00) 4.4 (00:00) 6.6 10.83 (12:00) 8.06 (12:30) 6.2 1.4 3.8 0.2 0.8
05-02-2021 11.7 (15:40) 4.3 (00:00) 8 11.39 (20:00) 8.06 (23:10) 8.2 2.6 2 0 3.6
04-02-2021 8.3 (02:50) 4.6 (00:00) 6.5 6.39 (19:50) 4.72 (19:50) 13.6 0 5 7.4 1.2
03-02-2021 12.4 (13:20) 7.3 (00:00) 9.8 13.89 (06:20) 10.28 (09:10) 2.8 0 0.8 0.4 1.6
02-02-2021 12.6 (16:30) 8.4 (08:40) 10.5 14.17 (19:10) 10 (19:10) 0 0 0 0 0
01-02-2021 14.1 (16:30) 7.7 (00:00) 10.9 17.22 (00:30) 12.22 (16:50) 0 0 0 0 0

Gráficas

Temp. máximas Temp. mínimas Temp. medias Precipitaciones Rachas de viento máximas Velocidades máximas media en intervalos de 10 minutos

Datos horarios

Fecha y hora oficial Temperatura (ºC) Velocidad del viento (km/h) Dirección del viento Racha (km/h) Dirección de racha Precipitación (mm) Presión (hPa) Tendencia (hPa) Humedad (%)
2021-03-02 23:00:00 7.6 6 Oeste 9 Oeste 0 -- -- 93
2021-03-02 22:00:00 9.4 2 Sudoeste 11 Sudeste 0 -- -- 89
2021-03-02 21:00:00 9.7 4 Este 6 Sudeste 0.2 -- -- 85
2021-03-02 20:00:00 10.2 5 Sur 14 Oeste 1.2 -- -- 89
2021-03-02 19:00:00 12.1 3 Nordeste 10 Este 0 -- -- 73
2021-03-02 18:00:00 13.2 9 Sudeste 16 Sudeste 0 -- -- 66
2021-03-02 17:00:00 16.2 5 Sudeste 10 Este 0 -- -- 56
2021-03-02 16:00:00 14.5 7 Oeste 15 Oeste 0 -- -- 61
2021-03-02 15:00:00 14.8 9 Sudoeste 26 Sudoeste 0 -- -- 61
2021-03-02 14:00:00 14.4 6 Sur 15 Sur 0 -- -- 62
2021-03-02 13:00:00 13.6 8 Sudeste 15 Sudeste 0 -- -- 67
2021-03-02 12:00:00 11.3 9 Sudeste 14 Sudeste 0 -- -- 75
2021-03-02 11:00:00 9.5 6 Sudeste 11 Sudeste 0 -- -- 80
2021-03-02 10:00:00 8.2 5 Sudeste 15 Este 0 -- -- 86
2021-03-02 09:00:00 6.6 12 Este 16 Este 0 -- -- 92
2021-03-02 08:00:00 5.8 9 Este 13 Este 0 -- -- 94
2021-03-02 07:00:00 6.2 7 Este 10 Este 0 -- -- 93
2021-03-02 06:00:00 6.5 5 Sudeste 14 Sudeste 0 -- -- 92
2021-03-02 05:00:00 6.3 9 Sudeste 19 Este 0 -- -- 93
2021-03-02 04:00:00 6.1 11 Sudeste 21 Sudeste 0 -- -- 92
2021-03-02 03:00:00 6.4 13 Sudeste 21 Este 0 -- -- 91
2021-03-02 02:00:00 6.8 12 Sudeste 19 Sudeste 0 -- -- 91
2021-03-02 01:00:00 6 10 Este 14 Este 0 -- -- 92
2021-03-02 00:00:00 7.6 12 Este 19 Este 0 -- -- 89
2021-03-01 23:00:00 7.8 10 Este 21 Este 0 -- -- 87
2021-03-01 22:00:00 8.2 12 Sudeste 24 Sudeste 0 -- -- 86
2021-03-01 21:00:00 8.5 14 Sudeste 28 Sudeste 0 -- -- 84
2021-03-01 20:00:00 9.3 21 Sudeste 31 Sudeste 0 -- -- 80
2021-03-01 19:00:00 9.9 22 Sudeste 35 Sudeste 0 -- -- 76
2021-03-01 18:00:00 11.1 22 Sudeste 40 Sudeste 0 -- -- 72
2021-03-01 17:00:00 13.1 28 Sudeste 44 Sudeste 0 -- -- 65
2021-03-01 16:00:00 14.2 26 Sudeste 44 Sudeste 0 -- -- 58
2021-03-01 15:00:00 15.3 24 Sudeste 46 Este 0 -- -- 57
2021-03-01 14:00:00 14 24 Sudeste 37 Sudeste 0 -- -- 60
2021-03-01 13:00:00 11.9 23 Sudeste 41 Sudeste 0.2 -- -- 66
2021-03-01 12:00:00 10.9 26 Sudeste 39 Sudeste 0 -- -- 70
2021-03-01 11:00:00 10.1 23 Sudeste 37 Sudeste 0 -- -- 73
2021-03-01 10:00:00 8.4 19 Sudeste 37 Sudeste 0 -- -- 82
2021-03-01 09:00:00 6.9 23 Sudeste 40 Este 0.4 -- -- 87
2021-03-01 08:00:00 6.5 23 Sudeste 36 Sudeste 0 -- -- 88
2021-03-01 07:00:00 6.7 19 Sudeste 33 Sudeste 0 -- -- 86
2021-03-01 06:00:00 6.6 21 Sudeste 36 Sudeste 0 -- -- 87
2021-03-01 05:00:00 6.7 24 Sudeste 36 Sudeste 0 -- -- 84
2021-03-01 04:00:00 7.1 15 Sudeste 33 Sudeste 0 -- -- 82
2021-03-01 03:00:00 7.8 19 Sur 35 Sur 0 -- -- 80
2021-03-01 02:00:00 6.3 9 Sur 17 Sudeste 0 -- -- 85
2021-03-01 01:00:00 6.1 6 Sur 15 Sudeste 0 -- -- 89
2021-03-01 00:00:00 4.9 9 Nordeste 16 Nordeste 0 -- -- 88
2021-02-28 23:00:00 4 9 Nordeste 15 Nordeste 0 -- -- 90
2021-02-28 22:00:00 4.9 10 Norte 16 Norte 0 -- -- 87
2021-02-28 21:00:00 5.3 12 Nordeste 18 Norte 0 -- -- 86
2021-02-28 20:00:00 8.3 9 Nordeste 13 Norte 0 -- -- 69
2021-02-28 19:00:00 12.2 2 Sudoeste 10 Oeste 0 -- -- 55
2021-02-28 18:00:00 15 5 Oeste 13 Sudoeste 0 -- -- 47
2021-02-28 17:00:00 15.2 6 Nordeste 12 Nordeste 0 -- -- 45
2021-02-28 16:00:00 14.9 5 Noroeste 12 Nordeste 0 -- -- 48
2021-02-28 15:00:00 13.9 5 Nordeste 17 Norte 0 -- -- 50
2021-02-28 14:00:00 12.9 8 Nordeste 18 Nordeste 0 -- -- 55
2021-02-28 13:00:00 11.5 9 Norte 18 Norte 0 -- -- 60
2021-02-28 12:00:00 9.9 9 Este 26 Nordeste 0 -- -- 63
2021-02-28 11:00:00 7.3 10 Este 17 Este 0 -- -- 73
2021-02-28 10:00:00 4.9 6 Este 20 Nordeste 0 -- -- 81
2021-02-28 09:00:00 2.2 18 Nordeste 23 Este 0 -- -- 90
2021-02-28 08:00:00 0.2 12 Nordeste 18 Nordeste 0 -- -- 94
2021-02-28 07:00:00 -0.5 3 Noroeste 8 Nordeste 0 -- -- 94
2021-02-28 06:00:00 0.5 3 Nordeste 18 Nordeste 0 -- -- 91
2021-02-28 05:00:00 1 8 Nordeste 15 Nordeste 0 -- -- 90
2021-02-28 04:00:00 1 4 Nordeste 17 Nordeste 0 -- -- 87
2021-02-28 03:00:00 2 5 Nordeste 9 Nordeste 0 -- -- 82
2021-02-28 02:00:00 2.6 4 Nordeste 13 Nordeste 0 -- -- 79
2021-02-28 01:00:00 3.6 8 Nordeste 18 Nordeste 0 -- -- 74
2021-02-28 00:00:00 3.8 8 Este 13 Nordeste 0 -- -- 74
2021-02-27 23:00:00 5.8 3 Norte 12 Nordeste 0 -- -- 66
2021-02-27 22:00:00 6.7 9 Nordeste 14 Nordeste 0 -- -- 65
2021-02-27 21:00:00 6.8 11 Nordeste 18 Nordeste 0 -- -- 72
2021-02-27 20:00:00 8 13 Nordeste 15 Nordeste 0 -- -- 77
2021-02-27 19:00:00 11.4 10 Nordeste 22 Nordeste 0 -- -- 70
2021-02-27 18:00:00 15.1 14 Nordeste 24 Nordeste 0 -- -- 55
2021-02-27 17:00:00 16.9 14 Nordeste 24 Nordeste 0 -- -- 53
2021-02-27 16:00:00 17.3 2 Nordeste 21 Norte 0 -- -- 52
2021-02-27 15:00:00 16.4 13 Nordeste 27 Nordeste 0 -- -- 53
2021-02-27 14:00:00 15 13 Nordeste 24 Nordeste 0 -- -- 60
2021-02-27 13:00:00 13.9 9 Nordeste 20 Nordeste 0 -- -- 63
2021-02-27 12:00:00 11.9 14 Nordeste 21 Nordeste 0 -- -- 69
2021-02-27 11:00:00 9.8 13 Nordeste 22 Nordeste 0 -- -- 79
2021-02-27 10:00:00 7.2 16 Nordeste 24 Este 0 -- -- 85
2021-02-27 09:00:00 4.8 5 Nordeste 12 Este 0 -- -- 95
2021-02-27 08:00:00 3.8 2 Nordeste 18 Este 0 -- -- 96
2021-02-27 07:00:00 3.5 4 Nordeste 14 Nordeste 0 -- -- 98
2021-02-27 06:00:00 4.1 5 Nordeste 10 Nordeste 0 -- -- 98
2021-02-27 05:00:00 3.5 4 Nordeste 7 Nordeste 0 -- -- 97
2021-02-27 04:00:00 3.7 4 Nordeste 5 Nordeste 0 -- -- 95
2021-02-27 03:00:00 4 0 Calma 13 Nordeste 0 -- -- 95
2021-02-27 02:00:00 5.1 11 Nordeste 14 Nordeste 0 -- -- 92
2021-02-27 01:00:00 5.7 3 Nordeste 20 Nordeste 0 -- -- 89
2021-02-27 00:00:00 7.1 13 Nordeste 20 Nordeste 0 -- -- 87
2021-02-26 23:00:00 7.6 17 Nordeste 22 Nordeste 0 -- -- 85
2021-02-26 22:00:00 8.2 17 Norte 22 Norte 0 -- -- 84
2021-02-26 21:00:00 8.5 14 Nordeste 19 Nordeste 0 -- -- 85
2021-02-26 20:00:00 9.1 9 Nordeste 13 Nordeste 0 -- -- 82
2021-02-26 19:00:00 12.4 8 Nordeste 13 Este 0 -- -- 66
2021-02-26 18:00:00 14.8 11 Este 18 Este 0 -- -- 56
2021-02-26 17:00:00 15.6 11 Nordeste 22 Este 0 -- -- 56
2021-02-26 16:00:00 16.1 12 Nordeste 23 Este 0 -- -- 53
2021-02-26 15:00:00 15.4 10 Este 25 Este 0 -- -- 59
2021-02-26 14:00:00 15.7 11 Este 21 Sudeste 0 -- -- 57
2021-02-26 13:00:00 14 10 Este 21 Este 0 -- -- 65
2021-02-26 12:00:00 12.3 13 Este 26 Este 0 -- -- 70
2021-02-26 11:00:00 10.5 18 Nordeste 25 Este 0 -- -- 78
2021-02-26 10:00:00 8.1 15 Este 24 Este 0 -- -- 86
2021-02-26 09:00:00 6.8 15 Nordeste 24 Nordeste 0 -- -- 89
2021-02-26 08:00:00 6.4 18 Nordeste 26 Este 0 -- -- 89
2021-02-26 07:00:00 6.6 12 Nordeste 19 Nordeste 0 -- -- 89
2021-02-26 06:00:00 6.7 9 Nordeste 21 Nordeste 0 -- -- 88
2021-02-26 05:00:00 6.6 20 Nordeste 33 Nordeste 0 -- -- 89
2021-02-26 04:00:00 7.2 25 Nordeste 34 Nordeste 0 -- -- 88
2021-02-26 03:00:00 6.5 18 Nordeste 24 Nordeste 0 -- -- 91
2021-02-26 02:00:00 7 15 Nordeste 19 Nordeste 0 -- -- 89
2021-02-26 01:00:00 7.6 8 Nordeste 19 Nordeste 0 -- -- 88
2021-02-26 00:00:00 8.3 16 Nordeste 25 Nordeste 0 -- -- 85
2021-02-25 23:00:00 8.7 19 Nordeste 24 Nordeste 0 -- -- 85
2021-02-25 22:00:00 8.4 16 Nordeste 21 Nordeste 0 -- -- 87
2021-02-25 21:00:00 8.6 12 Nordeste 16 Nordeste 0 -- -- 87
2021-02-25 20:00:00 9.4 10 Nordeste 14 Norte 0 -- -- 84
2021-02-25 19:00:00 10.7 4 Nordeste 13 Nordeste 0 -- -- 79
2021-02-25 18:00:00 12.7 10 Nordeste 17 Nordeste 0 -- -- 68
2021-02-25 17:00:00 13.2 12 Nordeste 15 Norte 0 -- -- 63
2021-02-25 16:00:00 13.6 8 Nordeste 14 Norte 0 -- -- 63
2021-02-25 15:00:00 12.8 4 Nordeste 8 Este 0 -- -- 65
2021-02-25 14:00:00 13.8 3 Este 12 Sudeste 0 -- -- 62
2021-02-25 13:00:00 12.4 7 Sudeste 18 Sudeste 0 -- -- 67
2021-02-25 12:00:00 11.3 11 Sudeste 20 Sudeste 0 -- -- 71
2021-02-25 11:00:00 9.8 14 Sudeste 23 Sudeste 0 -- -- 75
2021-02-25 10:00:00 8.6 15 Sudeste 21 Sudeste 0 -- -- 81
2021-02-25 09:00:00 7.3 12 Este 20 Este 0 -- -- 87
2021-02-25 08:00:00 7 9 Sudeste 15 Sudeste 0 -- -- 86
2021-02-25 07:00:00 6.3 8 Sudeste 14 Este 0 -- -- 89
2021-02-25 06:00:00 5.7 12 Este 17 Este 0 -- -- 90
2021-02-25 05:00:00 6 14 Este 20 Este 0 -- -- 89
2021-02-25 04:00:00 6.9 14 Este 20 Este 0 -- -- 86
2021-02-25 03:00:00 6.7 11 Este 15 Nordeste 0 -- -- 89
2021-02-25 02:00:00 7.7 5 Este 9 Este 0 -- -- 85
2021-02-25 01:00:00 6.3 4 Nordeste 9 Sudeste 0 -- -- 90
2021-02-25 00:00:00 8.4 5 Este 12 Sudeste 0 -- -- 84
2021-02-24 23:00:00 8.6 2 Este 15 Sudeste 0 -- -- 85
2021-02-24 22:00:00 8.7 10 Sudeste 14 Sudeste 0 -- -- 85
2021-02-24 21:00:00 9.5 9 Sudeste 17 Sudeste 0 -- -- 80
2021-02-24 20:00:00 11.1 13 Sudeste 26 Sudeste 0 -- -- 73
2021-02-24 19:00:00 13 13 Sudeste 22 Sudeste 0 -- -- 65
2021-02-24 18:00:00 17.3 8 Sudoeste 24 Sudoeste 0 -- -- 46
2021-02-24 17:00:00 18.5 9 Sudoeste 28 Sur 0 -- -- 45
2021-02-24 16:00:00 17.8 13 Sudeste 31 Sudeste 0 -- -- 51
2021-02-24 15:00:00 16.8 20 Sudeste 33 Sudeste 0 -- -- 53
2021-02-24 14:00:00 15.9 19 Sudeste 31 Sudeste 0 -- -- 56
2021-02-24 13:00:00 15.4 18 Sudeste 27 Sudeste 0 -- -- 58
2021-02-24 12:00:00 13.7 15 Sudeste 29 Sudeste 0 -- -- 61
2021-02-24 11:00:00 10.8 19 Sudeste 28 Sudeste 0 -- -- 71
2021-02-24 10:00:00 8 13 Este 19 Este 0 -- -- 83
2021-02-24 09:00:00 5 11 Este 15 Este 0 -- -- 93
2021-02-24 08:00:00 3.2 6 Este 11 Este 0 -- -- 95
2021-02-24 07:00:00 2.4 5 Este 11 Este 0 -- -- 95
2021-02-24 06:00:00 3.1 7 Este 11 Este 0 -- -- 93
2021-02-24 05:00:00 2.9 6 Este 12 Este 0 -- -- 92
2021-02-24 04:00:00 3.7 6 Este 9 Este 0 -- -- 91
2021-02-24 03:00:00 3.6 6 Este 11 Este 0 -- -- 90
2021-02-24 02:00:00 4.1 8 Este 12 Este 0 -- -- 88
2021-02-24 01:00:00 4.7 5 Sudeste 13 Sudeste 0 -- -- 84
2021-02-24 00:00:00 5.1 9 Sudeste 17 Este 0 -- -- 82
2021-02-23 23:00:00 4.8 8 Este 16 Este 0 -- -- 87
2021-02-23 22:00:00 5.9 12 Este 17 Sudeste 0 -- -- 82
2021-02-23 21:00:00 7.7 12 Sudeste 23 Sudeste 0 -- -- 73
2021-02-23 20:00:00 9.1 14 Sudeste 23 Sudeste 0 -- -- 65
2021-02-23 19:00:00 12.5 7 Sudeste 12 Sudeste 0 -- -- 38
2021-02-23 18:00:00 15.2 8 Sur 17 Sur 0 -- -- 29
2021-02-23 17:00:00 15.8 10 Sur 19 Sur 0 -- -- 28
2021-02-23 16:00:00 15.8 10 Sur 22 Sur 0 -- -- 34
2021-02-23 15:00:00 14.6 9 Este 19 Este 0 -- -- 40
2021-02-23 14:00:00 13.5 6 Sudeste 15 Este 0 -- -- 49
2021-02-23 13:00:00 11.5 8 Sudeste 17 Sudeste 0 -- -- 55
2021-02-23 12:00:00 9.6 10 Sudeste 18 Este 0 -- -- 66
2021-02-23 11:00:00 6.7 11 Este 21 Este 0 -- -- 73
2021-02-23 10:00:00 2.8 11 Este 26 Este 0 -- -- 86
2021-02-23 09:00:00 0.4 18 Este 26 Este 0 -- -- 91
2021-02-23 08:00:00 0 10 Este 15 Este 0 -- -- 90
2021-02-23 07:00:00 -0.4 9 Este 18 Este 0 -- -- 93
2021-02-23 06:00:00 -0.3 8 Este 15 Este 0 -- -- 93
2021-02-23 05:00:00 0.4 4 Este 14 Este 0 -- -- 91
2021-02-23 04:00:00 1.3 9 Este 15 Este 0 -- -- 87
2021-02-23 03:00:00 1.3 5 Nordeste 12 Este 0 -- -- 86
2021-02-23 02:00:00 2.2 4 Este 12 Este 0 -- -- 81
2021-02-23 01:00:00 3.2 8 Este 15 Este 0 -- -- 79
2021-02-23 00:00:00 3 4 Este 11 Este 0 -- -- 81
2021-02-22 23:00:00 3.8 8 Este 12 Este 0 -- -- 76
2021-02-22 22:00:00 4.3 5 Este 11 Este 0 -- -- 73
2021-02-22 21:00:00 4.9 5 Este 13 Este 0 -- -- 67
2021-02-22 20:00:00 6.8 6 Este 10 Este 0 -- -- 51
2021-02-22 19:00:00 11.2 0 Calma 4 Sudoeste 0 -- -- 38
2021-02-22 18:00:00 13.5 3 Oeste 13 Oeste 0 -- -- 34
2021-02-22 17:00:00 12.7 6 Oeste 19 Oeste 0 -- -- 37
2021-02-22 16:00:00 11.6 12 Sudoeste 23 Oeste 0 -- -- 44
2021-02-22 15:00:00 10.9 10 Sudoeste 18 Sudoeste 0 -- -- 51
2021-02-22 14:00:00 10 9 Sudoeste 15 Sudoeste 0 -- -- 49
2021-02-22 13:00:00 9 6 Sudoeste 15 Sudoeste 0 -- -- 65
2021-02-22 12:00:00 7.5 7 Oeste 14 Oeste 0 -- -- 69
2021-02-22 11:00:00 5.3 6 Oeste 18 Oeste 0 -- -- 81
2021-02-22 10:00:00 3 10 Oeste 15 Oeste 0 -- -- 96
2021-02-22 09:00:00 0.9 6 Oeste 15 Oeste 0 -- -- 98
2021-02-22 08:00:00 0.2 7 Oeste 19 Oeste 0 -- -- 98
2021-02-22 07:00:00 1.1 10 Oeste 18 Oeste 0 -- -- 98
2021-02-22 06:00:00 1.3 8 Oeste 12 Oeste 0 -- -- 98
2021-02-22 05:00:00 2.2 8 Oeste 19 Oeste 0 -- -- 97
2021-02-22 04:00:00 2.9 11 Oeste 15 Sudoeste 0 -- -- 95
2021-02-22 03:00:00 3.8 10 Oeste 17 Oeste 0 -- -- 94
2021-02-22 02:00:00 4.2 8 Oeste 14 Oeste 0 -- -- 95
2021-02-22 01:00:00 4.1 9 Oeste 15 Noroeste 0 -- -- 94
2021-02-22 00:00:00 4.1 11 Noroeste 20 Noroeste 0 -- -- 93
2021-02-21 23:00:00 4.1 14 Noroeste 29 Noroeste 0 -- -- 94
2021-02-21 22:00:00 4.6 21 Noroeste 33 Noroeste 0.4 -- -- 94
2021-02-21 21:00:00 5 10 Norte 18 Noroeste 0.6 -- -- 95
2021-02-21 20:00:00 5.6 4 Noroeste 8 Sudoeste 1.4 -- -- 97
2021-02-21 19:00:00 5.4 3 Sudoeste 14 Sudoeste 1.2 -- -- 96
2021-02-21 18:00:00 5.3 9 Sudoeste 27 Oeste 1 -- -- 95
2021-02-21 17:00:00 5.5 22 Oeste 29 Oeste 1.2 -- -- 94
2021-02-21 16:00:00 7 11 Sudoeste 15 Sudoeste 0.6 -- -- 94
2021-02-21 15:00:00 7.2 6 Sudoeste 23 Oeste 0.4 -- -- 92
2021-02-21 14:00:00 6.8 23 Sudoeste 29 Sudoeste 0 -- -- 90
2021-02-21 13:00:00 7.5 21 Oeste 36 Oeste 0 -- -- 87
2021-02-21 12:00:00 8.1 25 Sudoeste 40 Oeste 0 -- -- 83
2021-02-21 11:00:00 10.8 19 Este 29 Sudeste 0 -- -- 67
2021-02-21 10:00:00 10.8 20 Sudeste 33 Sudeste 0 -- -- 64
2021-02-21 09:00:00 9.8 17 Este 35 Sudeste 0 -- -- 65
2021-02-21 08:00:00 10.2 23 Sudeste 41 Sudeste 0 -- -- 61
2021-02-21 07:00:00 9.9 19 Sudeste 27 Sudeste 0 -- -- 63
2021-02-21 06:00:00 9.1 17 Sudeste 37 Este 0 -- -- 66
2021-02-21 05:00:00 9.8 24 Este 33 Este 0 -- -- 61
2021-02-21 04:00:00 10 27 Este 40 Este 0 -- -- 56
2021-02-21 03:00:00 10.6 15 Este 31 Este 0 -- -- 47
2021-02-21 02:00:00 11.1 19 Sudeste 28 Sudeste 0 -- -- 42
2021-02-21 01:00:00 10.7 14 Este 27 Este 0 -- -- 43
2021-02-21 00:00:00 9.6 11 Sudeste 25 Sudeste 0 -- -- 50
2021-02-20 23:00:00 11 18 Sudeste 25 Sudeste 0 -- -- 43
2021-02-20 22:00:00 10.6 16 Sudeste 25 Sudeste 0 -- -- 48
2021-02-20 21:00:00 11.3 15 Sudeste 24 Sudeste 0 -- -- 46
2021-02-20 20:00:00 11.2 14 Sudeste 24 Sudeste 0 -- -- 54
2021-02-20 19:00:00 12.1 12 Sudeste 24 Sur 0 -- -- 51
2021-02-20 18:00:00 12.7 12 Sur 35 Sur 0 -- -- 51
2021-02-20 17:00:00 13.9 24 Sur 36 Sur 0 -- -- 45
2021-02-20 16:00:00 15 24 Sur 37 Sur 0 -- -- 41
2021-02-20 15:00:00 16.7 23 Sur 42 Sur 0 -- -- 40
2021-02-20 14:00:00 14.3 14 Sur 22 Sur 0 -- -- 50
2021-02-20 13:00:00 12.6 14 Sur 25 Sur 0 -- -- 55
2021-02-20 12:00:00 11.8 20 Sur 33 Sur 0 -- -- 58
2021-02-20 11:00:00 9 13 Sur 28 Sur 0 -- -- 66
2021-02-20 10:00:00 8.9 19 Sur 27 Sur 0 -- -- 67
2021-02-20 09:00:00 5.7 9 Sudeste 17 Sudeste 0 -- -- 78
2021-02-20 08:00:00 5.6 10 Sudeste 25 Sur 0 -- -- 76
2021-02-20 07:00:00 8.1 19 Sudoeste 26 Sudoeste 0 -- -- 67
2021-02-20 06:00:00 5.7 10 Sudeste 18 Sur 0 -- -- 75
2021-02-20 05:00:00 6.1 7 Este 12 Nordeste 0 -- -- 70
2021-02-20 04:00:00 6.3 8 Este 16 Este 0 -- -- 70
2021-02-20 03:00:00 5.1 9 Sudeste 15 Este 0 -- -- 82
2021-02-20 02:00:00 6.1 9 Sudeste 15 Sur 0 -- -- 78
2021-02-20 01:00:00 6.1 12 Sudeste 18 Sudeste 0 -- -- 82
2021-02-20 00:00:00 8.1 14 Sur 22 Sur 0 -- -- 75
2021-02-19 23:00:00 8.4 9 Sur 14 Sudoeste 0 -- -- 75
2021-02-19 22:00:00 8.8 9 Sur 26 Sur 0 -- -- 73
2021-02-19 21:00:00 10.1 19 Sur 33 Sudoeste 0 -- -- 67
2021-02-19 20:00:00 9.9 12 Sur 26 Sur 0 -- -- 70
2021-02-19 19:00:00 11.4 21 Sur 32 Sur 0 -- -- 61
2021-02-19 18:00:00 13 12 Sur 28 Sur 0 -- -- 51
2021-02-19 17:00:00 13.8 21 Sudoeste 44 Sudoeste 0 -- -- 46
2021-02-19 16:00:00 14.7 28 Sudoeste 44 Sudoeste 0 -- -- 44
2021-02-19 15:00:00 16 33 Sudoeste 48 Sudoeste 0 -- -- 44
2021-02-19 14:00:00 16.3 31 Sudoeste 47 Sudoeste 0 -- -- 41
2021-02-19 13:00:00 14.9 21 Sur 39 Sur 0 -- -- 54
2021-02-19 12:00:00 13.5 24 Sur 41 Sudoeste 0 -- -- 58
2021-02-19 11:00:00 12 17 Sur 27 Sur 0 -- -- 70
2021-02-19 10:00:00 9.4 10 Sur 17 Sur 0 -- -- 79
2021-02-19 09:00:00 7.5 6 Sur 10 Sur 0 -- -- 88
2021-02-19 08:00:00 6.4 6 Sur 10 Sudoeste 0 -- -- 92
2021-02-19 07:00:00 6.2 5 Sudeste 9 Sudeste 0 -- -- 92
2021-02-19 06:00:00 6.5 5 Sudeste 13 Sudoeste 0 -- -- 92
2021-02-19 05:00:00 7.2 10 Sudoeste 15 Sudoeste 0 -- -- 91
2021-02-19 04:00:00 7.8 8 Sur 14 Sur 0 -- -- 90
2021-02-19 03:00:00 8.2 5 Sur 10 Sur 0 -- -- 92
2021-02-19 02:00:00 8.5 4 Sudoeste 10 Sur 0 -- -- 95
2021-02-19 01:00:00 8.3 6 Sur 9 Sudeste 0 -- -- 96
2021-02-19 00:00:00 8.4 3 Sudeste 9 Sudeste 0 -- -- 97
2021-02-18 23:00:00 8.5 4 Sudeste 14 Sudoeste 0.2 -- -- 97
2021-02-18 22:00:00 8.8 10 Sudoeste 23 Sudoeste 0.8 -- -- 97
2021-02-18 21:00:00 8.9 11 Sudoeste 20 Sudoeste 1.2 -- -- 96
2021-02-18 20:00:00 9.4 14 Sudoeste 24 Sudoeste 0 -- -- 93
2021-02-18 19:00:00 9.6 18 Sudoeste 27 Sudoeste 0.4 -- -- 93
2021-02-18 18:00:00 9.7 22 Sudoeste 32 Sudoeste 0.4 -- -- 91
2021-02-18 17:00:00 11.6 14 Sudoeste 32 Oeste 0 -- -- 81
2021-02-18 16:00:00 11.8 26 Oeste 39 Oeste 0 -- -- 78
2021-02-18 15:00:00 12.9 30 Sudoeste 53 Oeste 0 -- -- 68
2021-02-18 14:00:00 12.8 38 Sudoeste 52 Sudoeste 0 -- -- 65
2021-02-18 13:00:00 13.1 39 Sudoeste 51 Sudoeste 0 -- -- 62
2021-02-18 12:00:00 11.8 34 Sudoeste 48 Sudoeste 0 -- -- 66
2021-02-18 11:00:00 10.5 30 Sudoeste 41 Sudoeste 0 -- -- 73
2021-02-18 10:00:00 8 8 Sudoeste 24 Sur 0 -- -- 86
2021-02-18 09:00:00 6.8 16 Sur 27 Sudoeste 0 -- -- 89
2021-02-18 08:00:00 5.6 8 Sur 17 Sur 0 -- -- 95
2021-02-18 07:00:00 4.7 3 Oeste 10 Sur 0 -- -- 96
2021-02-18 06:00:00 5.7 6 Sur 13 Sur 0 -- -- 95
2021-02-18 05:00:00 6.2 11 Sur 17 Sudoeste 0 -- -- 94
2021-02-18 04:00:00 6.7 13 Sur 19 Sur 0 -- -- 91
2021-02-18 03:00:00 7 11 Sur 17 Sur -- -- -- 90
2021-02-18 02:00:00 7.6 12 Sur 16 Sur 0 -- -- 88
2021-02-18 01:00:00 8.2 10 Sudoeste 24 Sur 0 -- -- 85
2021-02-18 00:00:00 8.7 12 Sur 17 Sur 0 -- -- 84
2021-02-17 23:00:00 8.6 8 Sur 17 Sur 0 -- -- 84
2021-02-17 22:00:00 9 13 Sur 22 Sur 0 -- -- 82
2021-02-17 21:00:00 9.7 14 Sur 21 Sur 0 -- -- 83
2021-02-17 20:00:00 10.1 10 Sur 15 Sur 0 -- -- 84
2021-02-17 19:00:00 11.3 9 Sur 26 Sudoeste 0 -- -- 78
2021-02-17 18:00:00 13.7 22 Sudoeste 33 Sur 0 -- -- 67
2021-02-17 17:00:00 14 22 Sudoeste 31 Sudoeste 0 -- -- 66
2021-02-17 16:00:00 13.8 21 Sudoeste 32 Sudoeste 0.2 -- -- 69
2021-02-17 15:00:00 14.4 19 Sudoeste 27 Sudoeste 0 -- -- 69
2021-02-17 14:00:00 12.8 9 Oeste 27 Sudoeste 0 -- -- 79
2021-02-17 13:00:00 12.8 5 Sudoeste 13 Sur 0 -- -- 82
2021-02-17 12:00:00 11.3 7 Sur 13 Sur 0 -- -- 90
2021-02-17 11:00:00 8.9 5 Sudeste 13 Sudeste 0 -- -- 98
2021-02-17 10:00:00 8.2 5 Este 10 Este 0 -- -- 99
2021-02-17 09:00:00 7.5 5 Sudeste 9 Este 0 -- -- 99
2021-02-17 08:00:00 7.1 6 Sudeste 11 Sudeste 0 -- -- 99
2021-02-17 07:00:00 7.3 4 Sudeste 6 Sudeste 0 -- -- 99
2021-02-17 06:00:00 7.2 3 Sudeste 7 Sudeste 0 -- -- 99
2021-02-17 05:00:00 7.1 3 Este 5 Este 0 -- -- 99
2021-02-17 04:00:00 7.4 0 Calma 9 Sudoeste 0 -- -- 98
2021-02-17 03:00:00 7.6 5 Sur 12 Sudoeste 0 -- -- 97
2021-02-17 02:00:00 8 0 Calma 10 Sur 0 -- -- 97
2021-02-17 01:00:00 8.1 6 Sur 12 Sur 0 -- -- 98
2021-02-17 00:00:00 8.7 2 Sur 8 Sudoeste 0.4 -- -- 97
2021-02-16 23:00:00 8.9 5 Sur 8 Sur 0 -- -- 96
2021-02-16 22:00:00 8.8 6 Sudoeste 9 Sudoeste 0 -- -- 96
2021-02-16 21:00:00 9 8 Sudoeste 14 Sudoeste 0.2 -- -- 95
2021-02-16 20:00:00 9.6 9 Oeste 21 Oeste 0 -- -- 93
2021-02-16 19:00:00 10.9 18 Sudoeste 30 Sudoeste 0 -- -- 83
2021-02-16 18:00:00 11.7 19 Sudoeste 32 Sudoeste 0 -- -- 76
2021-02-16 17:00:00 12.1 25 Sudoeste 35 Sudoeste 0 -- -- 73
2021-02-16 16:00:00 12.2 23 Sudoeste 32 Sudoeste 0 -- -- 72
2021-02-16 15:00:00 12.7 22 Sudoeste 38 Sudoeste 0 -- -- 69
2021-02-16 14:00:00 12.6 27 Sudoeste 44 Sudoeste 0 -- -- 67
2021-02-16 13:00:00 12.9 28 Sudoeste 51 Sudoeste 0 -- -- 64
2021-02-16 12:00:00 12.5 37 Sudoeste 53 Sudoeste 0 -- -- 64
2021-02-16 11:00:00 10.4 27 Sudoeste 44 Sudoeste 0 -- -- 73
2021-02-16 10:00:00 7.7 13 Oeste 23 Oeste 0 -- -- 81
2021-02-16 09:00:00 4.6 0 Calma 11 Sudeste 0 -- -- 88
2021-02-16 08:00:00 4.6 9 Sudeste 14 Sudeste 0 -- -- 87
2021-02-16 07:00:00 4.9 10 Sudeste 18 Sudeste 0 -- -- 88
2021-02-16 06:00:00 5.1 9 Sudeste 13 Sudeste 0 -- -- 87
2021-02-16 05:00:00 5.2 6 Este 15 Este 0 -- -- 87
2021-02-16 04:00:00 5.5 6 Este 14 Este 0 -- -- 87
2021-02-16 03:00:00 5.7 6 Este 17 Este 0 -- -- 89
2021-02-16 02:00:00 6.1 8 Este 13 Este 0 -- -- 89
2021-02-16 01:00:00 6.6 8 Este 15 Este 0 -- -- 86
2021-02-16 00:00:00 7.1 10 Sudeste 21 Sudeste 0 -- -- 86
2021-02-15 23:00:00 6.7 11 Este 15 Este 0 -- -- 91
2021-02-15 22:00:00 7.6 7 Este 18 Este 0 -- -- 89
2021-02-15 21:00:00 8.8 8 Este 12 Este 0 -- -- 85
2021-02-15 20:00:00 11.4 4 Sudeste 8 Sur 0 -- -- 70
2021-02-15 19:00:00 13.5 6 Sur 10 Sur 0 -- -- 62
2021-02-15 18:00:00 17.6 7 Sur 15 Sudeste 0 -- -- 51
2021-02-15 17:00:00 18.2 9 Sudeste 21 Sudeste 0 -- -- 50
2021-02-15 16:00:00 18.5 9 Sudeste 27 Sudeste 0 -- -- 46
2021-02-15 15:00:00 17.9 12 Sudeste 21 Este 0 -- -- 51
2021-02-15 14:00:00 16.8 12 Sudeste 21 Sudeste 0 -- -- 55
2021-02-15 13:00:00 14.2 12 Este 22 Este 0 -- -- 67
2021-02-15 12:00:00 11.9 15 Este 26 Este 0 -- -- 71
2021-02-15 11:00:00 9.5 17 Este 26 Este 0 -- -- 78
2021-02-15 10:00:00 7 13 Este 20 Este 0 -- -- 85
2021-02-15 09:00:00 5 11 Este 22 Este 0 -- -- 90
2021-02-15 08:00:00 4.7 17 Este 24 Este 0 -- -- 90
2021-02-15 07:00:00 4.6 12 Este 17 Este 0 -- -- 92
2021-02-15 06:00:00 4.2 8 Nordeste 12 Nordeste 0 -- -- 90
2021-02-15 05:00:00 5.2 5 Este 13 Este 0 -- -- 91
2021-02-15 04:00:00 5 10 Este 15 Este 0 -- -- 93
2021-02-15 03:00:00 4.5 7 Nordeste 17 Este 0 -- -- 95
2021-02-15 02:00:00 4.7 7 Nordeste 15 Este 0 -- -- 93
2021-02-15 01:00:00 5.9 8 Este 13 Este 0 -- -- 96
2021-02-15 00:00:00 5.7 6 Nordeste 8 Nordeste 0 -- -- 93
2021-02-14 23:00:00 7.5 6 Nordeste 9 Nordeste 0 -- -- 92
2021-02-14 22:00:00 8 5 Nordeste 10 Este 0 -- -- 87
2021-02-14 21:00:00 9.8 0 Calma 4 Sudoeste 0 -- -- 83
2021-02-14 20:00:00 11.6 3 Sudoeste 10 Sudeste 0 -- -- 76
2021-02-14 19:00:00 12.7 6 Este 9 Sudeste 0 -- -- 74
2021-02-14 18:00:00 15.9 5 Sudeste 13 Este 0 -- -- 61
2021-02-14 17:00:00 16.6 9 Sudeste 15 Este 0 -- -- 58
2021-02-14 16:00:00 17.7 6 Sudeste 14 Sudeste 0 -- -- 55
2021-02-14 15:00:00 15.9 4 Sudeste 15 Sudeste 0 -- -- 60
2021-02-14 14:00:00 15.3 10 Sudeste 17 Sudeste 0 -- -- 65
2021-02-14 13:00:00 12.7 10 Sudeste 19 Sudeste 0 -- -- 73
2021-02-14 12:00:00 9.7 10 Sudeste 18 Sudeste 0 -- -- 91
2021-02-14 11:00:00 5.1 13 Este 19 Este 0 -- -- 99
2021-02-14 10:00:00 3.7 12 Este 19 Este 0 -- -- 100
2021-02-14 09:00:00 2.3 8 Este 14 Este 0 -- -- 100
2021-02-14 08:00:00 -0.1 5 Nordeste 9 Nordeste 0 -- -- 100
2021-02-14 07:00:00 0.5 8 Nordeste 14 Nordeste 0 -- -- 100
2021-02-14 06:00:00 1.8 7 Nordeste 11 Nordeste 0 -- -- 100
2021-02-14 05:00:00 1.8 6 Nordeste 9 Este 0 -- -- 99
2021-02-14 04:00:00 2.9 6 Este 10 Este 0 -- -- 99
2021-02-14 03:00:00 2.4 7 Nordeste 10 Nordeste 0 -- -- 99
2021-02-14 02:00:00 3 9 Nordeste 10 Nordeste 0 -- -- 98
2021-02-14 01:00:00 3.4 6 Nordeste 9 Nordeste 0 -- -- 98
2021-02-14 00:00:00 4 5 Nordeste 9 Nordeste 0 -- -- 97
2021-02-13 23:00:00 5.4 0 Calma 9 Nordeste 0 -- -- 97
2021-02-13 22:00:00 7.2 0 Calma 4 Sur 0 -- -- 94
2021-02-13 21:00:00 8.4 3 Sudoeste 7 Oeste 0 -- -- 88
2021-02-13 20:00:00 9.6 3 Sudoeste 6 Sudoeste 0 -- -- 85
2021-02-13 19:00:00 10.6 5 Sudoeste 13 Oeste 0 -- -- 82
2021-02-13 18:00:00 14.8 9 Oeste 24 Oeste 0 -- -- 66
2021-02-13 17:00:00 13.9 16 Oeste 23 Sudoeste 0 -- -- 68
2021-02-13 16:00:00 14.8 16 Sudoeste 24 Sudoeste 0 -- -- 63
2021-02-13 15:00:00 14.3 13 Sudoeste 22 Sudoeste 0 -- -- 65
2021-02-13 14:00:00 13.2 12 Sudoeste 24 Sudoeste 0 -- -- 67
2021-02-13 13:00:00 12.1 10 Sudoeste 20 Oeste 0 -- -- 71
2021-02-13 08:00:00 -- -- -- -- -- -- -- -- --
2021-02-13 07:00:00 2.4 0 Calma 5 Sudoeste 0 -- -- 99
2021-02-13 06:00:00 2 0 Calma 8 Sur 0 -- -- 98
2021-02-13 05:00:00 2.9 4 Sudoeste 8 Sudoeste 0 -- -- 98
2021-02-13 04:00:00 3.1 3 Sudeste 8 Sur 0 -- -- 97
2021-02-13 03:00:00 4.3 4 Este 8 Sudeste 0 -- -- 97
2021-02-13 02:00:00 4.2 2 Este 5 Sudoeste 0 -- -- 96
2021-02-13 01:00:00 4.9 4 Oeste 7 Oeste 0 -- -- 95
2021-02-13 00:00:00 5.5 3 Norte 8 Norte 0 -- -- 94
2021-02-12 23:00:00 6.1 0 Calma 12 Oeste 0 -- -- 89
2021-02-12 22:00:00 7 4 Sudoeste 14 Oeste 0 -- -- 88
2021-02-12 21:00:00 7.6 8 Sudoeste 18 Oeste 0 -- -- 85
2021-02-12 20:00:00 8.2 11 Oeste 24 Oeste 0 -- -- 83
2021-02-12 19:00:00 9.8 14 Oeste 30 Oeste 0 -- -- 75
2021-02-12 18:00:00 12.6 20 Oeste 32 Oeste 0 -- -- 65
2021-02-12 17:00:00 13.9 23 Oeste 36 Oeste 0 -- -- 61
2021-02-12 16:00:00 13.1 26 Oeste 39 Oeste 0 -- -- 66
2021-02-12 15:00:00 12.4 23 Oeste 36 Oeste 0 -- -- 68
2021-02-12 14:00:00 13 25 Oeste 39 Oeste 0 -- -- 71
2021-02-12 13:00:00 12 32 Oeste 49 Oeste 0 -- -- 73
2021-02-12 12:00:00 10.4 32 Oeste 45 Oeste 0 -- -- 79
2021-02-12 11:00:00 9.6 32 Oeste 44 Oeste 0 -- -- 83
2021-02-12 10:00:00 8.3 29 Oeste 41 Oeste 0 -- -- 89
2021-02-12 09:00:00 7.1 24 Oeste 35 Sudoeste 0 -- -- 94
2021-02-12 08:00:00 7.2 23 Sudoeste 40 Oeste 0 -- -- 95
2021-02-12 07:00:00 8.1 29 Oeste 41 Oeste 0 -- -- 92
2021-02-12 06:00:00 8.7 25 Oeste 48 Oeste 2.2 -- -- 94
2021-02-12 05:00:00 9.6 23 Sudoeste 32 Sudoeste 0 -- -- 95
2021-02-12 04:00:00 9.7 27 Sudoeste 41 Sudoeste 0 -- -- 94
2021-02-12 03:00:00 9.5 23 Sudoeste 31 Sudoeste 1.4 -- -- 94
2021-02-12 02:00:00 9.7 18 Sudoeste 31 Sudoeste 3 -- -- 97
2021-02-12 01:00:00 10.2 15 Sudoeste 24 Sudoeste 0 -- -- 90
2021-02-12 00:00:00 9.4 13 Sur 28 Sur 0 -- -- 92
2021-02-11 23:00:00 10.1 21 Sudoeste 30 Sur 0 -- -- 90
2021-02-11 22:00:00 10 18 Sur 27 Sudoeste 0 -- -- 91
2021-02-11 21:00:00 10.2 8 Sur 22 Sudoeste 0 -- -- 90
2021-02-11 20:00:00 11.2 14 Sudoeste 26 Sur 0 -- -- 88
2021-02-11 19:00:00 11.9 14 Sudoeste 23 Sur 0 -- -- 86
2021-02-11 18:00:00 13.4 15 Sur 30 Sur 0 -- -- 81
2021-02-11 17:00:00 14.2 12 Sudoeste 26 Sudoeste 0 -- -- 81
2021-02-11 16:00:00 12.9 21 Sudoeste 31 Sudoeste 0.2 -- -- 91
2021-02-11 15:00:00 14.5 19 Sudoeste 39 Sudoeste 0 -- -- 81
2021-02-11 14:00:00 13.7 27 Sudoeste 36 Sudoeste 0 -- -- 85
2021-02-11 13:00:00 13 11 Sudoeste 18 Sudoeste 0 -- -- 86
2021-02-11 12:00:00 12 5 Sudoeste 14 Sudoeste 0 -- -- 96
2021-02-11 11:00:00 10.8 6 Sur 12 Sur 0 -- -- 98
2021-02-11 10:00:00 9.4 6 Sudeste 8 Sudeste 0 -- -- 99
2021-02-11 09:00:00 8.4 6 Sudeste 11 Sudeste 0.2 -- -- 99
2021-02-11 08:00:00 8.3 6 Sudeste 9 Sudeste 0 -- -- 99
2021-02-11 07:00:00 8 6 Sudeste 9 Sudeste 0 -- -- 99
2021-02-11 06:00:00 7.5 4 Sudeste 7 Este 0 -- -- 99
2021-02-11 05:00:00 7.6 5 Sur 9 Sur 0 -- -- 98
2021-02-11 04:00:00 6.9 4 Sudeste 13 Sudeste 0 -- -- 98
2021-02-11 03:00:00 6.1 5 Sudeste 12 Sudeste 0 -- -- 96
2021-02-11 02:00:00 6.1 4 Sudeste 7 Sur 0 -- -- 93
2021-02-11 01:00:00 6.1 2 Sudoeste 17 Sudoeste 0.2 -- -- 90
2021-02-11 00:00:00 6.7 10 Sudoeste 27 Sudoeste 0 -- -- 83
2021-02-10 23:00:00 7.5 10 Sudoeste 18 Sudoeste 0 -- -- 82
2021-02-10 22:00:00 7 6 Sudoeste 9 Oeste 0 -- -- 83
2021-02-10 21:00:00 6.7 6 Sudoeste 14 Oeste 0 -- -- 80
2021-02-10 20:00:00 7.3 12 Sudoeste 14 Sudoeste 0 -- -- 77
2021-02-10 19:00:00 7.6 10 Sudoeste 28 Sudoeste 0 -- -- 75
2021-02-10 18:00:00 9.9 17 Sudoeste 32 Sudoeste 0 -- -- 66
2021-02-10 17:00:00 11.6 26 Oeste 39 Oeste 0 -- -- 52
2021-02-10 16:00:00 12.4 27 Sudoeste 36 Oeste 0 -- -- 51
2021-02-10 15:00:00 11.8 25 Oeste 40 Sudoeste 0 -- -- 55
2021-02-10 14:00:00 10.6 25 Sudoeste 35 Sudoeste 0 -- -- 63
2021-02-10 13:00:00 9.8 28 Sudoeste 42 Oeste 0 -- -- 64
2021-02-10 12:00:00 7.6 28 Sudoeste 40 Sudoeste 0 -- -- 76
2021-02-10 11:00:00 6.7 26 Oeste 37 Sudoeste 0 -- -- 83
2021-02-10 10:00:00 5.7 22 Sudoeste 32 Sudoeste 0 -- -- 89
2021-02-10 09:00:00 4.1 15 Oeste 30 Oeste 0 -- -- 94
2021-02-10 08:00:00 3.8 14 Oeste 32 Oeste 0.2 -- -- 95
2021-02-10 07:00:00 4.1 21 Oeste 44 Oeste 0 -- -- 96
2021-02-10 06:00:00 4.6 32 Oeste 48 Sudoeste 0 -- -- 93
2021-02-10 05:00:00 4.3 27 Sudoeste 39 Oeste 0 -- -- 95
2021-02-10 04:00:00 4.8 30 Oeste 51 Sudoeste 0 -- -- 93
2021-02-10 03:00:00 4.8 39 Sudoeste 68 Sudoeste 2.2 -- -- 93
2021-02-10 02:00:00 4.7 21 Sudoeste 49 Sudoeste 1.4 -- -- 96
2021-02-10 01:00:00 5.6 27 Sudoeste 42 Sudoeste 0 -- -- 91
2021-02-10 00:00:00 5.7 27 Sudoeste 44 Sudoeste 0 -- -- 88
2021-02-09 23:00:00 5.5 31 Sudoeste 48 Sudoeste 0 -- -- 90
2021-02-09 22:00:00 4.7 30 Sudoeste 41 Sudoeste 0 -- -- 94
2021-02-09 21:00:00 4.7 24 Sudoeste 38 Sudoeste 0 -- -- 93
2021-02-09 20:00:00 3.6 8 Sur 12 Sur 1.2 -- -- 98
2021-02-09 19:00:00 3.5 6 Sur 19 Sudoeste 0.4 -- -- 97
2021-02-09 18:00:00 3.4 18 Sudoeste 43 Oeste 1.4 -- -- 95
2021-02-09 17:00:00 5 15 Oeste 50 Sudoeste 0.6 -- -- 93
2021-02-09 16:00:00 6.3 35 Sudoeste 47 Sudoeste 0 -- -- 83
2021-02-09 15:00:00 7.3 23 Sudoeste 32 Sudoeste 0 -- -- 83
2021-02-09 14:00:00 4.4 18 Sudoeste 42 Oeste 1 -- -- 93
2021-02-09 13:00:00 4.2 32 Oeste 68 Sudoeste 4.8 -- -- 94
2021-02-09 12:00:00 6.5 37 Oeste 64 Oeste 4.4 -- -- 95
2021-02-09 11:00:00 7.5 24 Sur 48 Sudoeste 0 -- -- 91
2021-02-09 10:00:00 7.2 27 Sudoeste 48 Sudoeste 0.2 -- -- 93
2021-02-09 09:00:00 7.5 33 Sudoeste 48 Sudoeste 0 -- -- 89
2021-02-09 08:00:00 6.9 27 Sudoeste 49 Sudoeste 0 -- -- 90
2021-02-09 07:00:00 6.7 22 Sur 44 Sudoeste 0 -- -- 91
2021-02-09 06:00:00 6 17 Sur 29 Sur 0 -- -- 95
2021-02-09 05:00:00 5.4 14 Sur 25 Sur 0.4 -- -- 96
2021-02-09 04:00:00 5 18 Sur 26 Sur 0.8 -- -- 95
2021-02-09 03:00:00 5.1 17 Sudoeste 39 Sudoeste 0.6 -- -- 93
2021-02-09 02:00:00 5.3 20 Sudoeste 36 Sudoeste 0.4 -- -- 93
2021-02-09 01:00:00 6.3 27 Sudoeste 44 Sudoeste 0 -- -- 88
2021-02-09 00:00:00 6.6 28 Sudoeste 41 Sudoeste 0 -- -- 88
2021-02-08 23:00:00 6.7 30 Sudoeste 43 Sudoeste 0 -- -- 87
2021-02-08 22:00:00 6.5 26 Sudoeste 43 Oeste 0 -- -- 90
2021-02-08 21:00:00 7 32 Sudoeste 46 Sudoeste 0 -- -- 90
2021-02-08 20:00:00 7.1 28 Sudoeste 36 Sudoeste 0 -- -- 93
2021-02-08 19:00:00 6.8 22 Oeste 41 Oeste 0 -- -- 90
2021-02-08 18:00:00 7.4 32 Oeste 49 Sudoeste 0 -- -- 85
2021-02-08 17:00:00 7.8 35 Oeste 54 Sudoeste 0 -- -- 84
2021-02-08 16:00:00 7 36 Sudoeste 60 Sudoeste 0 -- -- 85
2021-02-08 15:00:00 6.9 38 Sudoeste 60 Sudoeste 0 -- -- 88
2021-02-08 14:00:00 7.2 39 Sudoeste 60 Sudoeste 0 -- -- 84
2021-02-08 13:00:00 7.7 41 Oeste 54 Oeste 0 -- -- 82
2021-02-08 12:00:00 7.9 32 Sudoeste 44 Sudoeste 0 -- -- 83
2021-02-08 11:00:00 7 30 Sudoeste 49 Sudoeste 0 -- -- 86
2021-02-08 10:00:00 5.7 24 Sudoeste 41 Sudoeste 0 -- -- 92
2021-02-08 09:00:00 4.9 31 Sudoeste 45 Sudoeste 0 -- -- 93
2021-02-08 08:00:00 4.8 19 Sudoeste 36 Sudoeste 0 -- -- 95
2021-02-08 07:00:00 5.1 26 Sudoeste 37 Sudoeste 0 -- -- 92
2021-02-08 06:00:00 5.8 24 Sudoeste 34 Sudoeste 0 -- -- 91
2021-02-08 05:00:00 6 26 Sudoeste 36 Sudoeste 0 -- -- 95
2021-02-08 04:00:00 6.3 11 Sudoeste 24 Oeste 0.2 -- -- 98
2021-02-08 03:00:00 6.5 20 Oeste 33 Sudoeste 0.8 -- -- 96
2021-02-08 02:00:00 6.5 20 Sudoeste 33 Sudoeste 0 -- -- 93
2021-02-08 01:00:00 5.8 20 Sudoeste 29 Sudoeste 2.2 -- -- 96
2021-02-08 00:00:00 5.4 14 Sur 24 Sudoeste 0.6 -- -- 96
2021-02-07 23:00:00 5.1 13 Sur 24 Sur 0 -- -- 95
2021-02-07 22:00:00 5 13 Sur 22 Sur 0 -- -- 94
2021-02-07 21:00:00 4.9 6 Sur 25 Sudoeste 0 -- -- 96
2021-02-07 20:00:00 4.7 16 Sudoeste 29 Oeste 0.2 -- -- 95
2021-02-07 19:00:00 4.3 15 Sudoeste 34 Sudoeste 0.4 -- -- 95
2021-02-07 18:00:00 4 18 Sudoeste 35 Sudoeste 0.6 -- -- 96
2021-02-07 17:00:00 4 26 Sudoeste 37 Sudoeste 0.4 -- -- 93
2021-02-07 16:00:00 4.6 24 Oeste 39 Sudoeste 0.2 -- -- 86
2021-02-07 15:00:00 5.6 29 Sudoeste 39 Sudoeste 0 -- -- 80
2021-02-07 14:00:00 6.7 24 Sudoeste 31 Sudoeste 0 -- -- 76
2021-02-07 13:00:00 6.4 15 Sudoeste 22 Sudoeste 0 -- -- 76
2021-02-07 12:00:00 6.4 9 Oeste 17 Sudoeste 0 -- -- 72
2021-02-07 11:00:00 5.4 8 Oeste 13 Oeste 0 -- -- 78
2021-02-07 10:00:00 3.7 3 Sudoeste 6 Sur 0 -- -- 86
2021-02-07 09:00:00 1.7 3 Oeste 8 Noroeste 0 -- -- 95
2021-02-07 08:00:00 1.9 3 Noroeste 6 Noroeste 0 -- -- 92
2021-02-07 07:00:00 2.4 3 Este 8 Noroeste 0 -- -- 92
2021-02-07 06:00:00 2.5 4 Norte 13 Norte 0 -- -- 92
2021-02-07 05:00:00 2.6 10 Norte 14 Noroeste 0 -- -- 89
2021-02-07 04:00:00 3 13 Noroeste 17 Noroeste 0 -- -- 91
2021-02-07 03:00:00 3.6 9 Noroeste 12 Noroeste 0 -- -- 97
2021-02-07 02:00:00 3.9 7 Noroeste 8 Noroeste 0 -- -- 98
2021-02-07 01:00:00 4.4 0 Calma 2 Sur 0 -- -- 98
2021-02-07 00:00:00 4.4 0 Calma 16 Nordeste 0.8 -- -- 97
2021-02-06 23:00:00 5.2 10 Nordeste 17 Nordeste 0 -- -- 92
2021-02-06 22:00:00 5.4 0 Calma 3 Nordeste 0 -- -- 94
2021-02-06 21:00:00 5.4 3 Nordeste 6 Nordeste 0 -- -- 93
2021-02-06 20:00:00 5.8 6 Nordeste 14 Nordeste 0 -- -- 89
2021-02-06 19:00:00 5.9 8 Nordeste 17 Nordeste 0 -- -- 90
2021-02-06 18:00:00 6.8 14 Nordeste 26 Nordeste 0 -- -- 85
2021-02-06 17:00:00 7.4 19 Nordeste 26 Nordeste 0 -- -- 82
2021-02-06 16:00:00 7.1 19 Nordeste 34 Nordeste 0 -- -- 86
2021-02-06 15:00:00 7.1 18 Nordeste 28 Nordeste 0 -- -- 87
2021-02-06 14:00:00 7.4 23 Nordeste 33 Nordeste 0 -- -- 88
2021-02-06 13:00:00 6.8 26 Nordeste 39 Nordeste 0.2 -- -- 91
2021-02-06 12:00:00 6.7 28 Nordeste 39 Nordeste 0 -- -- 94
2021-02-06 11:00:00 6.3 19 Nordeste 26 Nordeste 1 -- -- 99
2021-02-06 10:00:00 6.8 3 Este 6 Este 0.2 -- -- 99
2021-02-06 09:00:00 6.6 3 Nordeste 6 Sudeste 0.2 -- -- 99
2021-02-06 08:00:00 6.6 5 Sudeste 10 Sudeste 1.6 -- -- 99
2021-02-06 07:00:00 6.9 6 Sudeste 9 Sudeste 0.8 -- -- 99
2021-02-06 06:00:00 7 4 Sudeste 6 Sudeste 0.8 -- -- 99
2021-02-06 05:00:00 7.1 3 Sudoeste 12 Sur 0 -- -- 99
2021-02-06 04:00:00 7.6 8 Sur 15 Sudeste 0 -- -- 98
2021-02-06 03:00:00 7.8 11 Sudeste 18 Este 0 -- -- 97
2021-02-06 02:00:00 8.1 10 Este 30 Este 0.6 -- -- 95
2021-02-06 01:00:00 8.7 22 Este 38 Este 0 -- -- 91
2021-02-06 00:00:00 8.9 27 Este 39 Este 2 -- -- 95
2021-02-05 23:00:00 8.9 26 Nordeste 36 Este 0 -- -- 91
2021-02-05 22:00:00 8.6 11 Nordeste 17 Nordeste 0 -- -- 91
2021-02-05 21:00:00 9.4 9 Este 35 Este 0 -- -- 88
2021-02-05 20:00:00 9.8 26 Nordeste 41 Este 1.6 -- -- 89
2021-02-05 19:00:00 10.6 10 Nordeste 20 Norte 0 -- -- 87
2021-02-05 18:00:00 11 9 Norte 25 Norte 0 -- -- 88
2021-02-05 17:00:00 11.4 13 Norte 25 Norte 0 -- -- 85
2021-02-05 16:00:00 11.6 14 Norte 22 Norte 0 -- -- 82
2021-02-05 15:00:00 10.4 6 Norte 15 Norte 0 -- -- 87
2021-02-05 14:00:00 10.2 12 Noroeste 15 Noroeste 0 -- -- 92
2021-02-05 13:00:00 9.1 6 Oeste 14 Nordeste 0 -- -- 94
2021-02-05 12:00:00 8 12 Nordeste 21 Este 0.4 -- -- 98
2021-02-05 11:00:00 6.7 11 Este 19 Este 1 -- -- 99
2021-02-05 10:00:00 6.2 4 Sudeste 6 Sudeste 0.2 -- -- 99
2021-02-05 09:00:00 6 4 Noroeste 5 Norte 0.4 -- -- 99
2021-02-05 08:00:00 5.9 2 Norte 13 Nordeste 0 -- -- 98
2021-02-05 07:00:00 5.7 4 Nordeste 22 Nordeste 0 -- -- 99
2021-02-05 06:00:00 5.6 16 Nordeste 22 Nordeste 0 -- -- 99
2021-02-05 05:00:00 5.5 15 Nordeste 26 Nordeste 1.2 -- -- 99
2021-02-05 04:00:00 5.3 14 Nordeste 18 Norte 0.4 -- -- 99
2021-02-05 03:00:00 5.4 11 Noroeste 16 Norte 0 -- -- 99
2021-02-05 02:00:00 5.1 8 Nordeste 15 Norte 1 -- -- 99
2021-02-05 01:00:00 4.7 9 Norte 13 Nordeste 0 -- -- 99
2021-02-05 00:00:00 4.6 13 Nordeste 16 Norte 0 -- -- 99
2021-02-04 23:00:00 5.3 7 Nordeste 10 Nordeste 0.8 -- -- 99
2021-02-04 22:00:00 5.5 3 Este 17 Este 0 -- -- 98
2021-02-04 21:00:00 5.5 13 Este 22 Este 0 -- -- 98
2021-02-04 20:00:00 5.7 16 Este 23 Este 0.2 -- -- 98
2021-02-04 19:00:00 5.8 7 Sudeste 12 Este 0.2 -- -- 97
2021-02-04 18:00:00 5.9 8 Este 11 Este 1 -- -- 96
2021-02-04 17:00:00 6.1 6 Nordeste 15 Nordeste 0.4 -- -- 94
2021-02-04 16:00:00 6.2 10 Nordeste 17 Norte 0.8 -- -- 94
2021-02-04 15:00:00 5.7 10 Norte 17 Norte 1.6 -- -- 94
2021-02-04 14:00:00 6 13 Norte 18 Noroeste 1.8 -- -- 93
2021-02-04 13:00:00 6.6 8 Noroeste 12 Noroeste 1.8 -- -- 95
2021-02-04 12:00:00 6.9 10 Noroeste 17 Noroeste 1.8 -- -- 95
2021-02-04 11:00:00 7.3 5 Norte 9 Norte 1.2 -- -- 97
2021-02-04 10:00:00 7.5 3 Este 8 Nordeste 0.4 -- -- 98
2021-02-04 09:00:00 7.2 3 Nordeste 4 Este 0.8 -- -- 98
2021-02-04 08:00:00 7.4 3 Sudeste 5 Sur 0.6 -- -- 97
2021-02-04 07:00:00 7.7 4 Sur 7 Sur 0.2 -- -- 97
2021-02-04 06:00:00 7.3 3 Este 6 Sudeste 0 -- -- 97
2021-02-04 05:00:00 7.6 0 Calma 7 Sudeste 0 -- -- 96
2021-02-04 04:00:00 7.9 4 Sur 12 Sudoeste 0 -- -- 94
2021-02-04 03:00:00 8.1 10 Sur 17 Sur 0 -- -- 93
2021-02-04 02:00:00 8 10 Sur 15 Sur 0 -- -- 94
2021-02-04 01:00:00 8.1 9 Sur 15 Sur 0 -- -- 96
2021-02-04 00:00:00 7.5 7 Sur 15 Sur 0 -- -- 97
2021-02-03 23:00:00 7.7 10 Sur 13 Sur 0 -- -- 95
2021-02-03 22:00:00 7.5 5 Sudoeste 15 Sur 0 -- -- 95
2021-02-03 21:00:00 8 12 Sudoeste 27 Sudoeste 0 -- -- 91
2021-02-03 20:00:00 8.5 20 Sudoeste 31 Sudoeste 0.4 -- -- 91
2021-02-03 19:00:00 8.7 18 Sudoeste 36 Sudoeste 1.2 -- -- 94
2021-02-03 18:00:00 9.7 11 Oeste 17 Sudoeste 0.2 -- -- 91
2021-02-03 17:00:00 10.5 14 Sudoeste 28 Sudoeste 0 -- -- 85
2021-02-03 16:00:00 10.1 17 Sudoeste 42 Sudoeste 0.2 -- -- 91
2021-02-03 15:00:00 10.2 29 Sudoeste 39 Sudoeste 0 -- -- 84
2021-02-03 14:00:00 10.8 31 Sudoeste 42 Sudoeste 0 -- -- 84
2021-02-03 13:00:00 11.5 30 Sudoeste 40 Sudoeste 0 -- -- 78
2021-02-03 12:00:00 11 30 Sudoeste 42 Sudoeste 0.2 -- -- 81
2021-02-03 11:00:00 9.7 31 Sudoeste 44 Sudoeste 0 -- -- 89
2021-02-03 10:00:00 9 35 Sudoeste 50 Sudoeste 0 -- -- 91
2021-02-03 09:00:00 8.6 33 Sudoeste 48 Sudoeste 0.6 -- -- 96
2021-02-03 08:00:00 8.5 27 Sudoeste 42 Sur 0 -- -- 90
2021-02-03 07:00:00 9.1 30 Sudoeste 50 Sudoeste 0 -- -- 85
2021-02-03 06:00:00 8.8 25 Sudoeste 37 Sudoeste 0 -- -- 87
2021-02-03 05:00:00 8.8 24 Sudoeste 33 Sudoeste 0 -- -- 88
2021-02-03 04:00:00 9 18 Sur 34 Sur 0 -- -- 86
2021-02-03 03:00:00 9.4 23 Sudoeste 41 Sur 0 -- -- 85
2021-02-03 02:00:00 9.3 26 Sur 39 Sudoeste 0 -- -- 85
2021-02-03 01:00:00 8.9 30 Sur 41 Sur 0 -- -- 85
2021-02-03 00:00:00 9 15 Sur 23 Sudeste 0 -- -- 84
2021-02-02 23:00:00 9.3 18 Sur 39 Sur 0 -- -- 83
2021-02-02 22:00:00 10 26 Sur 42 Sur 0 -- -- 80
2021-02-02 21:00:00 10.6 25 Sur 40 Sur 0 -- -- 77
2021-02-02 20:00:00 10.9 26 Sur 51 Sudoeste 0 -- -- 76
2021-02-02 19:00:00 11.1 33 Sudoeste 45 Sudoeste 0 -- -- 73
2021-02-02 18:00:00 11.5 26 Sudoeste 36 Sudoeste 0 -- -- 75
2021-02-02 17:00:00 12.1 21 Sudoeste 35 Oeste 0 -- -- 72
2021-02-02 16:00:00 11.7 25 Sudoeste 41 Sudoeste 0 -- -- 74
2021-02-02 15:00:00 11.8 28 Sudoeste 38 Sudoeste 0 -- -- 73
2021-02-02 14:00:00 12.1 32 Sudoeste 45 Sudoeste 0 -- -- 69
2021-02-02 13:00:00 11.7 34 Sudoeste 46 Sudoeste 0 -- -- 74
2021-02-02 12:00:00 11.8 27 Sudoeste 37 Sudoeste 0 -- -- 76
2021-02-02 11:00:00 11.4 18 Sudoeste 32 Sudoeste 0 -- -- 81
2021-02-02 10:00:00 9.4 21 Sudoeste 28 Sudoeste 0 -- -- 89
2021-02-02 09:00:00 8.6 21 Sudoeste 31 Sudoeste 0 -- -- 93
2021-02-02 08:00:00 8.6 22 Sudoeste 35 Sudoeste 0 -- -- 94
2021-02-02 07:00:00 9 20 Sudoeste 35 Sudoeste 0 -- -- 97
2021-02-02 06:00:00 9.6 21 Sudoeste 28 Sudoeste 0 -- -- 96
2021-02-02 05:00:00 9.6 19 Sudoeste 23 Sudoeste 0 -- -- 97
2021-02-02 04:00:00 10.2 19 Sudoeste 32 Sudoeste 0 -- -- 94
2021-02-02 03:00:00 10.2 18 Sudoeste 28 Sudoeste 0 -- -- 93
2021-02-02 02:00:00 10.4 18 Sudoeste 27 Sudoeste 0 -- -- 91
2021-02-02 01:00:00 10 18 Sudoeste 29 Sudoeste 0 -- -- 92
2021-02-02 00:00:00 9.4 19 Sudoeste 26 Sudoeste 0 -- -- 95
2021-02-01 23:00:00 9.7 15 Sudoeste 27 Sudoeste 0 -- -- 89
2021-02-01 22:00:00 10 27 Sudoeste 33 Sudoeste 0 -- -- 84
2021-02-01 21:00:00 9.9 21 Sudoeste 34 Sudoeste 0 -- -- 83
2021-02-01 20:00:00 10.7 22 Sudoeste 46 Sudoeste 0 -- -- 81
2021-02-01 19:00:00 11.4 24 Sudoeste 44 Sudoeste 0 -- -- 77
2021-02-01 18:00:00 11.8 31 Sudoeste 59 Sudoeste 0 -- -- 71
2021-02-01 17:00:00 12.9 40 Oeste 60 Oeste 0 -- -- 69
2021-02-01 16:00:00 13.3 35 Sudoeste 52 Sudoeste 0 -- -- 67
2021-02-01 15:00:00 12.9 35 Sudoeste 58 Sudoeste 0 -- -- 71
2021-02-01 14:00:00 13 40 Sudoeste 52 Oeste 0 -- -- 69
2021-02-01 13:00:00 11.2 35 Sudoeste 53 Sudoeste 0 -- -- 79
2021-02-01 12:00:00 11.8 38 Oeste 57 Oeste 0 -- -- 76
2021-02-01 11:00:00 10.6 41 Sudoeste 57 Sudoeste 0 -- -- 79
2021-02-01 10:00:00 9.2 41 Sudoeste 56 Sudoeste 0 -- -- 81
2021-02-01 09:00:00 8 29 Sudoeste 49 Sudoeste 0 -- -- 86
2021-02-01 08:00:00 8.2 38 Sudoeste 53 Oeste 0 -- -- 84
2021-02-01 07:00:00 8.1 37 Oeste 55 Sudoeste 0 -- -- 85
2021-02-01 06:00:00 7.9 36 Oeste 50 Sudoeste 0 -- -- 86
2021-02-01 05:00:00 8.1 37 Sudoeste 50 Sudoeste 0 -- -- 84
2021-02-01 04:00:00 8.2 32 Oeste 49 Oeste 0 -- -- 83
2021-02-01 03:00:00 8.5 39 Oeste 51 Oeste 0 -- -- 81
2021-02-01 02:00:00 8.9 36 Oeste 55 Oeste 0 -- -- 79
2021-02-01 01:00:00 9.5 39 Oeste 62 Oeste 0 -- -- 80
2021-02-01 00:00:00 9.7 35 Oeste 61 Oeste 0 -- -- 86